Time;durP1;ratioP1;P1;durP2;ratioP2;P2;SDS_P1;SDS_P2;PMS_P1;PMS_P2;Temp;Humidity;BMP_temperature;BMP_pressure;BME280_temperature;BME280_humidity;BME280_pressure;Samples;Min_cycle;Max_cycle;Signal;HPM_P1;HPM_P2
2023/04/28 00:01:14;;;;;;;13.18;4.63;;;;;;;18.06;54.70;99850.38;5076215;28;20106;-75
2023/04/28 00:03:40;;;;;;;5.80;1.30;;;;;;;18.08;54.38;99848.50;5076306;28;20047;-75
2023/04/28 00:06:05;;;;;;;3.90;0.90;;;;;;;18.11;54.52;99850.19;5076425;28;20043;-74
2023/04/28 00:08:31;;;;;;;4.20;1.20;;;;;;;18.08;54.84;99848.50;5075729;28;20095;-75
2023/04/28 00:10:57;;;;;;;9.37;2.87;;;;;;;18.09;54.80;99846.72;5076126;28;20518;-74
2023/04/28 00:13:22;;;;;;;4.17;0.83;;;;;;;18.10;54.69;99839.56;5076217;28;20530;-75
2023/04/28 00:15:53;;;;;;;4.33;1.00;;;;;;;18.07;54.78;99840.56;5079706;28;20295;-75
2023/04/28 00:18:20;;;;;;;5.53;0.80;;;;;;;18.04;54.75;99844.25;5078610;28;20025;-75
2023/04/28 00:20:45;;;;;;;4.13;1.00;;;;;;;18.03;54.76;99834.53;5076234;28;20029;-74
2023/04/28 00:23:11;;;;;;;4.18;0.80;;;;;;;18.02;54.80;99832.78;5075780;28;20050;-75
2023/04/28 00:25:36;;;;;;;6.40;0.90;;;;;;;18.00;54.68;99829.28;5076070;28;20058;-75
2023/04/28 00:28:01;;;;;;;4.90;0.90;;;;;;;17.97;54.83;99824.09;5075986;28;20035;-74
2023/04/28 00:30:29;;;;;;;3.50;0.70;;;;;;;17.93;54.82;99823.34;5073528;28;20105;-75
2023/04/28 00:32:54;;;;;;;4.10;0.60;;;;;;;17.91;55.14;99821.66;5073512;28;20048;-75
2023/04/28 00:35:20;;;;;;;3.72;0.60;;;;;;;17.89;55.14;99821.75;5076212;28;20547;-74
2023/04/28 00:37:45;;;;;;;3.40;0.93;;;;;;;17.88;55.17;99813.81;5075890;28;20498;-75
2023/04/28 00:40:11;;;;;;;4.43;1.00;;;;;;;17.86;55.15;99816.56;5075969;28;20028;-75
2023/04/28 00:42:37;;;;;;;3.08;0.68;;;;;;;17.84;55.36;99812.22;5060718;28;20035;-75
2023/04/28 00:45:05;;;;;;;4.60;0.90;;;;;;;17.78;55.42;99814.19;5079724;28;20032;-75
2023/04/28 00:47:33;;;;;;;4.10;0.73;;;;;;;17.73;55.54;99802.88;5079736;28;20470;-74
2023/04/28 00:50:00;;;;;;;3.70;0.80;;;;;;;17.74;55.61;99807.28;5079460;28;20442;-74
2023/04/28 00:52:26;;;;;;;3.27;1.10;;;;;;;17.72;55.73;99803.78;5079494;28;20039;-74
2023/04/28 00:54:52;;;;;;;4.00;0.75;;;;;;;17.67;55.78;99808.44;5078972;28;20081;-75
2023/04/28 00:57:18;;;;;;;3.28;0.60;;;;;;;17.65;56.04;99805.84;5079409;28;20036;-74
2023/04/28 00:59:43;;;;;;;4.57;0.80;;;;;;;17.64;56.00;99806.78;5061407;28;20131;-74
2023/04/28 01:02:15;;;;;;;3.67;0.68;;;;;;;17.62;56.15;99805.09;5079307;28;20035;-74
2023/04/28 01:04:42;;;;;;;4.63;0.80;;;;;;;17.60;56.12;99794.53;5079347;28;20135;-74
2023/04/28 01:07:08;;;;;;;4.07;0.68;;;;;;;17.61;56.13;99795.38;5079241;28;20029;-74
2023/04/28 01:09:33;;;;;;;3.57;0.80;;;;;;;17.62;56.24;99791.78;5079082;28;20035;-74
2023/04/28 01:11:59;;;;;;;4.38;0.80;;;;;;;17.60;56.35;99799.84;5078992;28;20123;-75
2023/04/28 01:14:24;;;;;;;4.20;0.80;;;;;;;17.58;56.46;99800.84;5061169;28;20047;-75
2023/04/28 01:16:52;;;;;;;6.53;1.13;;;;;;;17.55;56.64;99799.16;5086493;28;20058;-74
2023/04/28 01:19:21;;;;;;;4.35;1.00;;;;;;;17.54;56.75;99796.56;5061167;28;20029;-75
2023/04/28 01:21:48;;;;;;;3.65;0.75;;;;;;;17.51;56.85;99805.53;5079138;28;20038;-75
2023/04/28 01:24:13;;;;;;;4.43;0.70;;;;;;;17.43;57.07;99803.16;5078543;28;20484;-74
2023/04/28 01:26:39;;;;;;;4.97;1.27;;;;;;;17.34;57.22;99803.56;5078987;28;20040;-75
2023/04/28 01:29:04;;;;;;;4.73;0.90;;;;;;;17.28;57.52;99809.13;5078805;28;20547;-74
2023/04/28 01:31:30;;;;;;;4.50;0.90;;;;;;;17.24;57.74;99808.38;5060525;28;20484;-74
2023/04/28 01:33:56;;;;;;;4.10;0.90;;;;;;;17.24;57.72;99807.47;5078804;28;20131;-74
2023/04/28 01:36:22;;;;;;;3.92;0.90;;;;;;;17.23;57.93;99801.31;5078648;28;20029;-74
2023/04/28 01:38:50;;;;;;;4.15;0.93;;;;;;;17.26;57.94;99813.66;5078566;28;20024;-74
2023/04/28 01:41:16;;;;;;;4.67;1.10;;;;;;;17.24;57.91;99810.16;5078603;28;20028;-74
2023/04/28 01:43:42;;;;;;;4.50;1.10;;;;;;;17.22;57.92;99805.75;5078654;28;20155;-74
2023/04/28 01:46:10;;;;;;;4.83;1.17;;;;;;;17.18;58.27;99803.28;5060502;28;20681;-75
2023/04/28 01:48:36;;;;;;;5.28;1.00;;;;;;;17.06;58.44;99805.47;5078489;28;20028;-74
2023/04/28 01:51:01;;;;;;;4.63;0.93;;;;;;;16.96;58.77;99805.84;5078145;28;20052;-75
2023/04/28 01:53:27;;;;;;;3.53;0.93;;;;;;;16.83;59.10;99805.47;5077999;28;20039;-74
2023/04/28 01:55:52;;;;;;;5.63;1.00;;;;;;;16.71;59.57;99805.00;5078185;28;20029;-74
2023/04/28 01:58:18;;;;;;;4.47;1.10;;;;;;;16.64;60.20;99804.34;5060175;28;20045;-75
2023/04/28 02:00:44;;;;;;;5.68;1.20;;;;;;;16.59;60.22;99814.28;5054513;28;20083;-75
2023/04/28 02:03:10;;;;;;;4.50;0.98;;;;;;;16.55;59.94;99812.69;5070437;28;20086;-74
2023/04/28 02:05:36;;;;;;;3.10;1.00;;;;;;;16.56;60.08;99813.53;5076860;28;20104;-75
2023/04/28 02:08:01;;;;;;;4.28;1.13;;;;;;;16.58;60.18;99812.56;5070790;28;20027;-75
2023/04/28 02:10:27;;;;;;;3.67;1.00;;;;;;;16.57;60.23;99813.50;5077668;28;20025;-74
2023/04/28 02:12:52;;;;;;;4.23;0.90;;;;;;;16.54;60.46;99802.97;5078187;28;20064;-75
2023/04/28 02:15:18;;;;;;;5.37;1.10;;;;;;;16.53;60.31;99805.69;5077860;28;20032;-74
2023/04/28 02:17:43;;;;;;;2.60;0.70;;;;;;;16.52;60.51;99803.94;5085758;28;20266;-74
2023/04/28 02:20:09;;;;;;;3.65;0.90;;;;;;;16.54;60.60;99808.28;5059840;28;20031;-74
2023/04/28 02:22:35;;;;;;;3.87;1.00;;;;;;;16.58;60.56;99806.38;5077950;28;20082;-74
2023/04/28 02:25:00;;;;;;;3.58;1.00;;;;;;;16.60;60.42;99808.06;5077465;28;20051;-74
2023/04/28 02:27:26;;;;;;;4.13;1.00;;;;;;;16.56;60.35;99806.44;5078202;28;20033;-74
2023/04/28 02:29:52;;;;;;;6.13;1.00;;;;;;;16.55;60.51;99804.72;5070303;28;20025;-74
2023/04/28 02:32:17;;;;;;;4.13;0.90;;;;;;;16.54;60.92;99797.66;5072066;28;20037;-75
2023/04/28 02:34:42;;;;;;;4.10;1.00;;;;;;;16.57;60.77;99797.53;5077182;28;20032;-75
2023/04/28 02:37:08;;;;;;;8.70;1.10;;;;;;;16.61;60.45;99799.16;5077732;28;20028;-74
2023/04/28 02:39:33;;;;;;;4.60;0.80;;;;;;;16.62;60.54;99795.56;5077267;28;20078;-74
2023/04/28 02:41:59;;;;;;;6.13;1.07;;;;;;;16.64;60.73;99788.41;5077711;28;20480;-75
2023/04/28 02:44:25;;;;;;;5.50;1.30;;;;;;;16.65;60.69;99779.50;5077406;28;20028;-74
2023/04/28 02:46:50;;;;;;;4.82;0.90;;;;;;;16.66;60.97;99775.06;5077176;28;20037;-75
2023/04/28 02:49:15;;;;;;;4.50;1.00;;;;;;;16.69;60.81;99782.03;5077402;28;20527;-74
2023/04/28 02:51:41;;;;;;;4.17;0.73;;;;;;;16.68;60.69;99777.66;5059523;28;20131;-74
2023/04/28 02:54:06;;;;;;;4.65;0.90;;;;;;;16.67;60.82;99776.81;5077090;28;20051;-74
2023/04/28 02:56:33;;;;;;;4.87;0.97;;;;;;;16.67;60.91;99775.91;5077315;28;20081;-75
2023/04/28 02:58:58;;;;;;;3.72;1.10;;;;;;;16.65;61.01;99786.63;5077268;28;20093;-74
2023/04/28 03:01:24;;;;;;;4.93;1.10;;;;;;;16.62;60.92;99779.63;5048105;28;20131;-74
2023/04/28 03:03:49;;;;;;;5.87;1.33;;;;;;;16.58;61.19;99778.00;5074098;28;20087;-74
2023/04/28 03:06:15;;;;;;;4.50;1.10;;;;;;;16.52;61.11;99778.25;5077233;28;20488;-74
2023/04/28 03:08:40;;;;;;;6.13;1.20;;;;;;;16.47;61.36;99780.19;5076766;28;20270;-74
2023/04/28 03:11:06;;;;;;;4.60;1.20;;;;;;;16.44;61.66;99774.97;5077020;28;20051;-75
2023/04/28 03:13:31;;;;;;;3.60;0.97;;;;;;;16.44;61.47;99769.66;5059046;28;20511;-74
2023/04/28 03:15:56;;;;;;;5.22;1.27;;;;;;;16.43;61.73;99776.78;5081696;28;20443;-75
2023/04/28 03:18:22;;;;;;;6.43;1.10;;;;;;;16.41;61.54;99780.41;5061725;28;20039;-74
2023/04/28 03:20:48;;;;;;;6.00;1.30;;;;;;;16.32;61.97;99789.56;5077005;28;20024;-75
2023/04/28 03:23:14;;;;;;;5.40;1.42;;;;;;;16.26;62.11;99782.69;5076636;28;20159;-74
2023/04/28 03:25:39;;;;;;;3.70;1.17;;;;;;;16.24;62.21;99779.22;5076934;28;20519;-74
2023/04/28 03:28:04;;;;;;;4.87;1.60;;;;;;;16.18;62.97;99779.44;5076928;28;20107;-75
2023/04/28 03:30:30;;;;;;;5.33;1.23;;;;;;;16.11;62.87;99772.63;5073805;28;20344;-74
2023/04/28 03:32:55;;;;;;;5.43;1.30;;;;;;;16.07;63.44;99774.50;5073282;28;20029;-74
2023/04/28 03:35:21;;;;;;;4.13;1.40;;;;;;;16.07;63.68;99777.16;5076808;28;20024;-74
2023/04/28 03:37:47;;;;;;;5.45;1.42;;;;;;;16.05;64.02;99777.22;5076740;28;20024;-74
2023/04/28 03:40:12;;;;;;;5.90;1.40;;;;;;;16.05;64.28;99779.88;5076508;28;20051;-74
2023/04/28 03:42:38;;;;;;;6.47;1.70;;;;;;;16.03;64.40;99784.34;5076281;28;20469;-74
2023/04/28 03:45:03;;;;;;;5.70;1.30;;;;;;;16.02;64.58;99785.28;5076602;28;20473;-74
2023/04/28 03:47:29;;;;;;;5.97;1.43;;;;;;;16.01;64.52;99788.84;5076525;28;20031;-74
2023/04/28 03:49:54;;;;;;;4.72;1.30;;;;;;;15.97;64.74;99781.06;5058631;28;20092;-74
2023/04/28 03:52:20;;;;;;;5.20;1.40;;;;;;;15.99;64.71;99785.38;5076489;28;20231;-74
2023/04/28 03:54:45;;;;;;;4.50;1.20;;;;;;;16.00;64.57;99792.44;5076374;28;20085;-74
2023/04/28 03:57:11;;;;;;;4.90;1.40;;;;;;;16.00;64.74;99792.44;5076353;28;20111;-74
2023/04/28 03:59:37;;;;;;;5.00;1.40;;;;;;;15.97;65.16;99792.53;5076193;28;20041;-74
2023/04/28 04:02:02;;;;;;;5.93;1.40;;;;;;;15.97;65.21;99787.22;5076350;28;20060;-74
2023/04/28 04:04:27;;;;;;;6.57;1.50;;;;;;;15.97;65.32;99781.06;5076499;28;20032;-75
2023/04/28 04:06:53;;;;;;;5.47;1.50;;;;;;;16.01;65.01;99778.22;5076365;28;20028;-75
2023/04/28 04:09:19;;;;;;;4.10;1.42;;;;;;;16.00;65.22;99765.00;5076350;28;20550;-74
2023/04/28 04:11:44;;;;;;;5.50;1.30;;;;;;;16.01;65.09;99772.91;5076244;28;20033;-74
2023/04/28 04:14:09;;;;;;;6.77;1.77;;;;;;;15.98;65.52;99778.34;5076399;28;20031;-74
2023/04/28 04:16:36;;;;;;;6.03;1.53;;;;;;;16.01;65.20;99780.88;5067882;28;20028;-75
2023/04/28 04:19:01;;;;;;;5.73;1.40;;;;;;;16.02;65.42;99784.41;5080647;28;20302;-75
2023/04/28 04:21:27;;;;;;;5.13;1.40;;;;;;;16.03;65.35;99786.16;5048938;28;20124;-74
2023/04/28 04:23:52;;;;;;;6.50;1.77;;;;;;;16.05;65.28;99790.50;5080231;28;20052;-74
2023/04/28 04:26:18;;;;;;;4.53;1.50;;;;;;;16.06;65.13;99792.25;5080399;28;20035;-74
2023/04/28 04:28:43;;;;;;;5.00;1.50;;;;;;;16.07;65.43;99790.44;5080225;28;20170;-74
2023/04/28 04:31:09;;;;;;;5.40;1.47;;;;;;;16.09;65.11;99780.63;5075383;28;20464;-74
2023/04/28 04:33:36;;;;;;;4.53;1.30;;;;;;;16.08;65.04;99778.88;5079911;28;20048;-74
2023/04/28 04:36:01;;;;;;;4.30;1.20;;;;;;;16.09;65.00;99772.66;5080369;28;20271;-74
2023/04/28 04:38:27;;;;;;;5.05;1.40;;;;;;;16.07;65.58;99771.84;5079596;28;20032;-75
2023/04/28 04:40:52;;;;;;;5.60;1.50;;;;;;;16.08;64.84;99773.56;5062051;28;20570;-74
2023/04/28 04:43:18;;;;;;;4.40;1.37;;;;;;;16.08;64.94;99784.19;5080211;28;20024;-74
2023/04/28 04:45:43;;;;;;;5.07;1.38;;;;;;;16.03;65.25;99784.34;5079713;28;20044;-74
2023/04/28 04:48:09;;;;;;;4.83;1.63;;;;;;;16.03;64.99;99781.69;5080066;28;20107;-74
2023/04/28 04:50:34;;;;;;;5.20;1.40;;;;;;;16.03;65.14;99775.53;5080497;28;20021;-74
2023/04/28 04:52:59;;;;;;;5.10;1.20;;;;;;;16.03;64.89;99776.38;5079512;28;20035;-74
2023/04/28 04:55:25;;;;;;;4.60;1.40;;;;;;;16.04;64.91;99779.91;5079768;28;20396;-74
2023/04/28 04:57:51;;;;;;;4.82;1.38;;;;;;;16.08;64.64;99784.19;5079586;28;20059;-74
2023/04/28 05:00:17;;;;;;;4.37;1.30;;;;;;;16.10;64.90;99792.13;5079287;28;20040;-75
2023/04/28 05:02:42;;;;;;;7.93;1.60;;;;;;;16.10;65.02;99800.09;5078372;28;20278;-74
2023/04/28 05:05:08;;;;;;;3.78;1.20;;;;;;;16.10;64.91;99795.63;5079635;28;20029;-74
2023/04/28 05:07:34;;;;;;;5.10;1.40;;;;;;;16.12;65.07;99798.25;5078462;28;20036;-75
2023/04/28 05:10:00;;;;;;;5.13;1.60;;;;;;;16.14;65.19;99799.06;5079084;28;20028;-75
2023/04/28 05:12:25;;;;;;;4.70;1.37;;;;;;;16.15;65.08;99798.16;5061340;28;20037;-75
2023/04/28 05:14:51;;;;;;;5.53;1.38;;;;;;;16.09;65.16;99796.56;5076455;28;20568;-74
2023/04/28 05:17:16;;;;;;;6.10;1.53;;;;;;;16.12;65.03;99801.75;5073736;28;20029;-74
2023/04/28 05:19:41;;;;;;;5.57;1.53;;;;;;;16.17;64.96;99804.25;5059299;28;20032;-74
2023/04/28 05:22:07;;;;;;;4.80;1.57;;;;;;;16.21;64.79;99806.78;5041337;28;20063;-74
2023/04/28 05:24:32;;;;;;;6.00;1.63;;;;;;;16.26;64.98;99813.72;5072292;28;20032;-74
2023/04/28 05:26:58;;;;;;;6.40;1.50;;;;;;;16.28;64.66;99815.41;5058534;28;20048;-75
2023/04/28 05:29:23;;;;;;;7.83;1.70;;;;;;;16.29;64.61;99817.13;5064098;28;20404;-75
2023/04/28 05:31:49;;;;;;;5.67;1.70;;;;;;;16.27;65.16;99816.28;5047446;28;20035;-75
2023/04/28 05:34:14;;;;;;;8.00;1.80;;;;;;;16.28;65.15;99826.03;5073815;28;20025;-74
2023/04/28 05:36:40;;;;;;;5.27;1.90;;;;;;;16.34;64.65;99823.16;5079013;28;20033;-74
2023/04/28 05:39:06;;;;;;;5.50;1.75;;;;;;;16.51;64.42;99819.00;5078807;28;20028;-75
2023/04/28 05:41:31;;;;;;;4.93;1.77;;;;;;;16.69;64.02;99824.59;5070744;28;20037;-75
2023/04/28 05:43:57;;;;;;;4.80;2.03;;;;;;;16.76;63.88;99824.31;5058802;28;20105;-74
2023/04/28 05:46:22;;;;;;;5.90;2.00;;;;;;;16.72;64.10;99832.44;5058704;28;20158;-74
2023/04/28 05:48:48;;;;;;;4.87;1.90;;;;;;;16.78;64.00;99824.25;5058703;28;20059;-74
2023/04/28 05:51:13;;;;;;;7.70;2.43;;;;;;;17.02;63.73;99826.97;5062766;28;20400;-74
2023/04/28 05:53:39;;;;;;;7.07;2.20;;;;;;;17.11;63.44;99829.25;5058445;28;20028;-74
2023/04/28 05:56:05;;;;;;;9.37;3.27;;;;;;;17.21;63.36;99841.28;5061783;28;20028;-74
2023/04/28 05:58:31;;;;;;;5.47;1.90;;;;;;;17.34;63.15;99841.66;5045424;28;20055;-74
2023/04/28 06:00:56;;;;;;;7.20;2.30;;;;;;;17.39;63.17;99849.47;5062805;28;20108;-74
2023/04/28 06:03:22;;;;;;;6.45;2.10;;;;;;;17.47;63.09;99850.03;5058469;28;20449;-74
2023/04/28 06:05:47;;;;;;;7.17;2.67;;;;;;;17.60;62.60;99847.78;5040480;28;20104;-74
2023/04/28 06:08:13;;;;;;;8.68;2.80;;;;;;;17.63;62.93;99841.44;5040269;28;20873;-75
2023/04/28 06:10:38;;;;;;;6.33;2.40;;;;;;;17.64;62.93;99849.38;5068853;28;20025;-75
2023/04/28 06:13:05;;;;;;;7.00;2.87;;;;;;;17.61;63.41;99849.50;5040229;28;20124;-74
2023/04/28 06:15:31;;;;;;;7.57;2.97;;;;;;;17.67;63.37;99851.03;5060504;28;20061;-74
2023/04/28 06:17:57;;;;;;;6.45;2.58;;;;;;;17.74;63.36;99854.31;5068462;28;20061;-74
2023/04/28 06:20:23;;;;;;;8.20;2.97;;;;;;;17.73;63.85;99849.94;5058088;28;20104;-74
2023/04/28 06:22:49;;;;;;;6.00;3.00;;;;;;;17.74;63.85;99849.00;5058951;28;20059;-74
2023/04/28 06:25:14;;;;;;;7.40;2.93;;;;;;;17.74;63.99;99852.53;5051755;28;20068;-74
2023/04/28 06:27:40;;;;;;;7.63;2.97;;;;;;;17.73;63.84;99847.28;5057988;28;20056;-73
2023/04/28 06:30:06;;;;;;;6.70;2.70;;;;;;;17.66;64.02;99843.97;5068667;28;20019;-72
2023/04/28 06:32:31;;;;;;;8.55;2.90;;;;;;;17.54;64.25;99853.31;5044908;28;20048;-73
2023/04/28 06:34:56;;;;;;;5.97;2.63;;;;;;;17.58;64.56;99859.41;5077959;28;20531;-73
2023/04/28 06:37:22;;;;;;;9.63;2.87;;;;;;;17.60;64.49;99868.19;5077954;28;20052;-73
2023/04/28 06:39:47;;;;;;;5.07;2.30;;;;;;;17.63;64.60;99860.97;5058554;28;20083;-73
2023/04/28 06:42:17;;;;;;;6.83;2.60;;;;;;;17.72;64.34;99862.38;5063753;28;20025;-73
2023/04/28 06:44:42;;;;;;;8.13;2.75;;;;;;;17.79;64.45;99858.53;5057424;28;20032;-73
2023/04/28 06:47:08;;;;;;;8.25;3.00;;;;;;;17.81;64.54;99860.28;5057523;28;20552;-73
2023/04/28 06:49:33;;;;;;;7.77;2.60;;;;;;;17.68;64.72;99860.75;5057702;28;20025;-73
2023/04/28 06:51:58;;;;;;;6.37;2.80;;;;;;;17.64;64.91;99861.81;5061607;28;20036;-73
2023/04/28 06:54:24;;;;;;;10.20;2.87;;;;;;;17.60;65.14;99869.06;5057246;28;20465;-73
2023/04/28 06:56:49;;;;;;;7.53;2.93;;;;;;;17.57;65.29;99871.84;5066229;28;20476;-73
2023/04/28 06:59:15;;;;;;;8.85;3.08;;;;;;;17.56;65.34;99869.25;5036103;28;20117;-74
2023/04/28 07:01:40;;;;;;;6.57;2.93;;;;;;;17.71;65.08;99870.44;5041937;28;20041;-73
2023/04/28 07:04:06;;;;;;;7.20;2.80;;;;;;;17.82;64.83;99865.53;5037556;28;20044;-73
2023/04/28 07:06:31;;;;;;;9.65;3.20;;;;;;;17.88;64.91;99862.63;5035785;28;20021;-73
2023/04/28 07:08:57;;;;;;;7.97;3.00;;;;;;;17.85;64.72;99856.56;5042218;28;20025;-73
2023/04/28 07:11:22;;;;;;;11.10;3.20;;;;;;;17.85;64.87;99856.56;5043247;28;20037;-73
2023/04/28 07:13:50;;;;;;;13.30;2.87;;;;;;;17.89;64.74;99855.50;5037227;28;20033;-73
2023/04/28 07:16:18;;;;;;;7.13;2.45;;;;;;;17.94;64.53;99853.50;5048782;28;20056;-73
2023/04/28 07:18:44;;;;;;;6.75;2.50;;;;;;;17.83;65.00;99855.75;5036012;28;20040;-74
2023/04/28 07:21:10;;;;;;;7.13;2.45;;;;;;;18.00;64.50;99863.03;5037087;28;20021;-74
2023/04/28 07:23:37;;;;;;;10.57;3.07;;;;;;;18.09;64.58;99862.72;5044214;28;20065;-74
2023/04/28 07:26:03;;;;;;;7.97;2.35;;;;;;;18.17;64.15;99863.25;5050460;28;20017;-73
2023/04/28 07:28:28;;;;;;;6.80;2.47;;;;;;;18.30;64.03;99868.91;5056651;28;20094;-74
2023/04/28 07:30:54;;;;;;;5.63;2.40;;;;;;;18.43;64.05;99868.38;5050669;28;20290;-74
2023/04/28 07:33:19;;;;;;;8.53;2.60;;;;;;;18.51;63.67;99871.59;5044166;28;20473;-74
2023/04/28 07:35:45;;;;;;;7.63;2.30;;;;;;;18.58;63.60;99867.72;5056869;28;20036;-73
2023/04/28 07:38:10;;;;;;;9.10;2.63;;;;;;;18.70;63.20;99862.78;5056778;28;20370;-74
2023/04/28 07:40:36;;;;;;;8.63;2.50;;;;;;;18.83;63.08;99858.63;5056051;28;20439;-73
2023/04/28 07:43:02;;;;;;;7.33;2.70;;;;;;;19.02;62.93;99860.50;5035541;28;20036;-73
2023/04/28 07:45:28;;;;;;;10.45;3.10;;;;;;;19.08;62.83;99861.09;5036693;28;20037;-74
2023/04/28 07:47:53;;;;;;;9.65;2.80;;;;;;;18.99;63.26;99865.97;5036736;28;20048;-74
2023/04/28 07:50:19;;;;;;;9.60;2.80;;;;;;;19.03;63.11;99872.91;5040526;28;20401;-73
2023/04/28 07:52:44;;;;;;;9.00;2.73;;;;;;;19.21;63.06;99877.41;5036547;28;20091;-73
2023/04/28 07:55:10;;;;;;;7.07;3.20;;;;;;;19.40;62.87;99881.84;5036417;28;20257;-73
2023/04/28 07:57:36;;;;;;;6.53;2.70;;;;;;;19.59;62.34;99870.31;5045576;28;20296;-73
2023/04/28 08:00:02;;;;;;;7.78;3.33;;;;;;;19.83;62.15;99862.03;5039916;28;20048;-74
2023/04/28 08:02:28;;;;;;;8.93;3.20;;;;;;;19.93;61.79;99874.06;5036617;28;20490;-73
2023/04/28 08:04:54;;;;;;;8.47;3.63;;;;;;;20.14;61.41;99866.75;5036521;28;20056;-73
2023/04/28 08:07:19;;;;;;;8.30;3.40;;;;;;;20.15;61.43;99873.84;5036568;28;20267;-74
2023/04/28 08:09:47;;;;;;;8.23;3.53;;;;;;;20.21;61.08;99862.81;5047835;28;20027;-73
2023/04/28 08:12:13;;;;;;;7.60;3.47;;;;;;;20.26;60.77;99867.94;5036332;28;20025;-74
2023/04/28 08:14:38;;;;;;;10.45;3.28;;;;;;;20.13;60.75;99873.06;5036413;28;20033;-73
2023/04/28 08:17:04;;;;;;;7.10;3.30;;;;;;;20.17;61.07;99868.44;5050582;28;20151;-74
2023/04/28 08:19:29;;;;;;;6.73;2.90;;;;;;;20.20;61.32;99860.25;5035148;28;20421;-73
2023/04/28 08:21:55;;;;;;;7.77;2.90;;;;;;;20.29;60.84;99865.13;5040200;28;20401;-73
2023/04/28 08:24:20;;;;;;;7.30;3.10;;;;;;;20.31;60.84;99867.72;5055448;28;20512;-74
2023/04/28 08:26:46;;;;;;;8.83;3.20;;;;;;;20.33;60.63;99866.69;5056399;28;20033;-74
2023/04/28 08:29:11;;;;;;;7.93;3.23;;;;;;;20.43;60.33;99871.56;5056332;28;20021;-73
2023/04/28 08:31:37;;;;;;;9.57;4.10;;;;;;;20.40;59.95;99866.38;5044387;28;20035;-74
2023/04/28 08:34:02;;;;;;;7.82;3.20;;;;;;;20.33;60.14;99860.47;5047983;28;20029;-75
2023/04/28 08:36:31;;;;;;;6.77;2.97;;;;;;;20.21;60.50;99864.66;5054917;28;20036;-75
2023/04/28 08:39:02;;;;;;;6.45;3.22;;;;;;;20.33;60.17;99871.19;5056009;28;20085;-75
2023/04/28 08:41:31;;;;;;;6.50;3.22;;;;;;;20.45;60.35;99869.69;5048859;28;20038;-75
2023/04/28 08:43:57;;;;;;;8.77;3.60;;;;;;;20.52;59.81;99871.09;5036170;28;20037;-75
2023/04/28 08:46:26;;;;;;;8.65;3.53;;;;;;;20.71;59.74;99873.66;5034609;28;20033;-74
2023/04/28 08:48:58;;;;;;;9.30;3.05;;;;;;;20.85;59.10;99877.47;5035988;28;20043;-74
2023/04/28 08:51:54;;;;;;;10.15;3.50;;;;;;;20.96;58.82;99868.84;5040558;28;20037;-74
2023/04/28 08:54:22;;;;;;;6.85;3.17;;;;;;;21.06;58.94;99875.44;5032119;28;20037;-75
2023/04/28 08:56:47;;;;;;;7.07;3.23;;;;;;;20.79;58.58;99871.50;5044921;28;20025;-75
2023/04/28 08:59:14;;;;;;;8.90;3.03;;;;;;;21.03;58.11;99868.44;5046975;28;20048;-74
2023/04/28 09:01:40;;;;;;;5.95;2.60;;;;;;;21.00;58.08;99862.38;5060873;28;20061;-74
2023/04/28 09:04:06;;;;;;;8.87;2.83;;;;;;;21.18;58.20;99852.47;5041611;28;20036;-74
2023/04/28 09:06:36;;;;;;;6.25;2.80;;;;;;;21.44;57.98;99861.75;5059454;28;20025;-74
2023/04/28 09:09:20;;;;;;;7.83;3.23;;;;;;;21.52;57.27;99856.81;5065126;28;20032;-74
2023/04/28 09:12:00;;;;;;;6.18;2.75;;;;;;;21.54;57.38;99855.84;5062680;28;20029;-74
2023/04/28 09:14:27;;;;;;;8.68;3.05;;;;;;;21.72;57.19;99857.53;5059414;28;20025;-74
2023/04/28 09:16:53;;;;;;;8.43;2.72;;;;;;;21.73;57.01;99845.84;5073535;28;20021;-74
2023/04/28 09:19:19;;;;;;;7.78;3.60;;;;;;;21.72;57.18;99852.16;5073772;28;20039;-74
2023/04/28 09:21:55;;;;;;;7.37;3.40;;;;;;;21.89;57.13;99851.19;5061333;28;20500;-74
2023/04/28 09:24:37;;;;;;;8.20;3.00;;;;;;;21.93;56.59;99849.22;5065735;28;20059;-74
2023/04/28 09:27:03;;;;;;;7.97;3.47;;;;;;;21.94;56.46;99849.13;5059534;28;20542;-74
2023/04/28 09:29:32;;;;;;;9.18;3.50;;;;;;;21.92;56.00;99848.31;5059108;28;20476;-74
2023/04/28 09:32:17;;;;;;;6.10;2.80;;;;;;;21.71;56.19;99850.44;5058823;28;20029;-74
2023/04/28 09:34:55;;;;;;;9.20;3.00;;;;;;;21.98;56.57;99841.75;5077659;28;20024;-73
2023/04/28 09:37:29;;;;;;;7.05;2.60;;;;;;;22.21;56.90;99844.91;5060876;28;20016;-74
2023/04/28 09:39:56;;;;;;;7.05;3.33;;;;;;;22.35;55.93;99844.06;5060738;28;20054;-75
2023/04/28 09:42:32;;;;;;;7.88;2.60;;;;;;;22.32;55.93;99837.09;5063790;28;20025;-75
2023/04/28 09:44:57;;;;;;;10.00;3.55;;;;;;;22.47;55.50;99834.44;5058881;28;20481;-74
2023/04/28 09:47:24;;;;;;;6.27;2.80;;;;;;;22.47;55.48;99842.50;5040960;28;20132;-75
2023/04/28 09:49:58;;;;;;;6.72;2.88;;;;;;;22.35;55.32;99839.56;5059377;28;20025;-74
2023/04/28 09:52:24;;;;;;;7.63;3.13;;;;;;;22.42;55.41;99828.47;5060924;28;20040;-74
2023/04/28 09:54:50;;;;;;;7.37;2.87;;;;;;;22.61;55.26;99839.84;5058424;28;20025;-75
2023/04/28 09:57:20;;;;;;;7.70;2.90;;;;;;;22.71;54.95;99836.56;5071720;28;20096;-74
2023/04/28 09:59:52;;;;;;;6.80;3.28;;;;;;;22.68;54.24;99829.59;5075282;28;20041;-75
2023/04/28 10:02:19;;;;;;;7.70;3.25;;;;;;;22.53;54.71;99846.63;5040498;28;20516;-74
2023/04/28 10:04:49;;;;;;;7.10;3.27;;;;;;;22.68;54.60;99839.44;5058756;28;20035;-75
2023/04/28 10:07:15;;;;;;;6.45;2.88;;;;;;;22.73;54.32;99832.84;5058390;28;20028;-75
2023/04/28 10:09:46;;;;;;;7.50;3.30;;;;;;;22.90;53.83;99837.16;5069242;28;20115;-75
2023/04/28 10:12:13;;;;;;;7.97;3.40;;;;;;;23.14;53.90;99827.63;5058530;28;20052;-75
2023/04/28 10:14:39;;;;;;;7.47;3.42;;;;;;;23.06;54.14;99822.78;5064856;28;20024;-75
2023/04/28 10:17:06;;;;;;;6.73;3.20;;;;;;;23.38;53.91;99836.00;5073013;28;20038;-75
2023/04/28 10:19:32;;;;;;;9.30;3.38;;;;;;;23.37;52.89;99818.16;5078263;28;20476;-74
2023/04/28 10:22:32;;;;;;;8.55;2.90;;;;;;;23.49;52.97;99814.63;5078300;28;20063;-74
2023/04/28 10:25:16;;;;;;;6.75;3.05;;;;;;;23.70;52.67;99813.34;5059273;28;20027;-75
2023/04/28 10:27:44;;;;;;;9.07;3.55;;;;;;;23.89;52.44;99810.28;5058054;28;20104;-74
2023/04/28 10:30:14;;;;;;;6.30;3.27;;;;;;;23.98;53.08;99804.25;5057871;28;20029;-74
2023/04/28 10:32:40;;;;;;;8.48;3.03;;;;;;;24.16;52.02;99812.09;5059635;28;20116;-75
2023/04/28 10:35:43;;;;;;;6.80;3.10;;;;;;;24.01;52.29;99801.44;5060096;28;20036;-74
2023/04/28 10:38:11;;;;;;;6.72;3.05;;;;;;;24.01;52.04;99805.91;5025617;28;20040;-74
2023/04/28 10:40:38;;;;;;;6.30;3.05;;;;;;;23.97;52.35;99802.53;5077360;28;20020;-75
2023/04/28 10:43:05;;;;;;;6.37;3.03;;;;;;;23.96;51.87;99797.28;5057922;28;20028;-75
2023/04/28 10:45:56;;;;;;;7.38;2.83;;;;;;;24.01;51.94;99797.81;5039521;28;20032;-75
2023/04/28 10:48:33;;;;;;;8.77;3.40;;;;;;;23.89;51.71;99799.53;5057602;28;20370;-74
2023/04/28 10:53:44;;;;;;;6.72;2.80;;;;;;;24.07;50.65;99805.50;5070441;28;20550;-74
2023/04/28 10:56:18;;;;;;;8.07;3.00;;;;;;;24.10;50.99;99802.59;5077506;28;20553;-75
2023/04/28 10:58:57;;;;;;;8.90;3.00;;;;;;;24.01;51.30;99801.44;5077091;28;20041;-74
2023/04/28 11:01:33;;;;;;;6.97;2.95;;;;;;;24.25;51.28;99803.41;5060642;28;20440;-75
2023/04/28 11:04:06;;;;;;;7.53;2.88;;;;;;;24.33;50.89;99790.28;5057474;28;20484;-75
2023/04/28 11:06:38;;;;;;;8.18;3.30;;;;;;;24.25;51.10;99795.34;5057231;28;20035;-75
2023/04/28 11:09:18;;;;;;;12.90;6.27;;;;;;;24.32;51.29;99779.59;5063203;28;20066;-75
2023/04/28 11:11:59;;;;;;;45.90;14.95;;;;;;;24.59;51.35;99784.88;5060617;28;20431;-75
2023/04/28 11:14:24;;;;;;;14.73;8.18;;;;;;;24.64;50.92;99777.34;5062088;28;20028;-75
2023/04/28 11:16:53;;;;;;;6.03;3.37;;;;;;;24.73;50.42;99774.97;5073889;28;20029;-74
2023/04/28 11:19:27;;;;;;;8.93;3.45;;;;;;;24.89;50.46;99766.69;5057308;28;20021;-75
2023/04/28 11:21:54;;;;;;;7.57;2.92;;;;;;;24.88;50.29;99763.13;5056947;28;20029;-75
2023/04/28 11:24:21;;;;;;;6.00;2.92;;;;;;;24.93;49.96;99766.34;5039279;28;20056;-75
2023/04/28 11:26:47;;;;;;;7.15;2.80;;;;;;;25.20;50.25;99754.53;5056848;28;20032;-75
2023/04/28 11:29:13;;;;;;;5.97;2.73;;;;;;;25.36;49.41;99748.00;5056729;28;20041;-75
2023/04/28 11:31:40;;;;;;;6.43;2.90;;;;;;;25.22;49.09;99746.31;5056472;28;20021;-75
2023/04/28 11:34:13;;;;;;;6.45;2.92;;;;;;;25.13;49.41;99749.72;5052708;28;20182;-73
2023/04/28 11:36:39;;;;;;;6.38;2.83;;;;;;;25.12;48.75;99746.13;5076851;28;20032;-73